Aérodrome :
LOGIN :

S'inscrire | Disclaimer

   EN    FR    IT 

 










Légende :    VFR   VFR Marginal   IFR   IFR Intensif   IFR Très Intensif
Visi : 
Plafond : 
>= 8 km
>= 3000ft
5 à 8 km
1000 à 3000 ft
1500m à 5 km
500 à 1000 ft
800 à 1500m
200 à 500 ft
< 800m
< 200 ft
Symboles :   Orages  Brouillard  Fortes neiges  Fortes précipitations  Vent > 20 kt
SIGMETs :   Divers  Orages  Givrage  Turbulence  Onde Orograph.  Cendres Volcan.






- Altitude de l'aérodrome : 302 ft
- Code IATA : CGN


EDDK - Cologne Bonn

DERNIER METAR :
  • 282320Z AUTO 12004KT CAVOK 05/00 Q1019 NOSIG

METARs EXPIRÉS :
  • 282250Z AUTO 13003KT 100V160 CAVOK 05/00 Q1019 NOSIG
  • 282220Z AUTO 13005KT CAVOK 06/00 Q1019 NOSIG
  • 282150Z AUTO 13007KT CAVOK 06/01 Q1019 NOSIG
  • 282120Z AUTO 14006KT CAVOK 06/01 Q1020 NOSIG
  • 282050Z AUTO 13007KT CAVOK 07/02 Q1020 NOSIG
  • 282020Z AUTO 14006KT CAVOK 07/02 Q1020 NOSIG
  • 281950Z AUTO 14007KT CAVOK 06/02 Q1020 NOSIG
  • 281920Z AUTO 13005KT CAVOK 07/02 Q1020 NOSIG
  • 281850Z AUTO 12005KT CAVOK 07/02 Q1020 NOSIG

TAF TAF EDDK
Valide du 28 à 18h jusqu'au 01 à 00h UTC


281700Z 2818/2924 VRB03KT CAVOK
BECMG 2822/2901 13007KT
BECMG 2909/2911 16012KT



MET'MAP, la Météo Aéronautique d'un coup d'oeil ! - Copyright ORBIFLY Décembre 2007 - Disclaimer

ORBIFLY MET'MAP TEAM :

Programmation & Développement : Alexandra Zaïnal
Sur une idée originale de : Baudouin d'Aumeries
Soutien technique & logistique : Manuel Goepfert
Assistance : Marc-Olivier Méhu




SOURCES & CREDITS :

   NOAA